Time;durP1;ratioP1;P1;durP2;ratioP2;P2;SDS_P1;SDS_P2;PMS_P1;PMS_P2;Temp;Humidity;BMP_temperature;BMP_pressure;BME280_temperature;BME280_humidity;BME280_pressure;Samples;Min_cycle;Max_cycle;Signal;HPM_P1;HPM_P2
2022/05/12 00:00:09;;;;;;;13.90;6.83;;;;;;;19.54;51.27;99213.56;4955740;28;20321;-72
2022/05/12 00:02:36;;;;;;;10.57;6.23;;;;;;;19.54;51.19;99218.97;4954061;28;20311;-74
2022/05/12 00:05:05;;;;;;;15.10;6.20;;;;;;;19.51;51.20;99211.34;4954187;28;20223;-72
2022/05/12 00:07:32;;;;;;;15.17;6.50;;;;;;;19.53;51.19;99207.38;4951069;28;20243;-73
2022/05/12 00:09:59;;;;;;;14.70;6.60;;;;;;;19.51;51.19;99211.34;4950761;28;20288;-70
2022/05/12 00:12:25;;;;;;;11.17;6.60;;;;;;;19.58;51.15;99206.66;4949964;28;20323;-69
2022/05/12 00:14:52;;;;;;;15.77;6.10;;;;;;;19.58;50.87;99210.19;4952568;28;20307;-69
2022/05/12 00:17:18;;;;;;;13.10;6.77;;;;;;;19.59;50.90;99205.59;4949043;28;20502;-69
2022/05/12 00:19:45;;;;;;;16.33;7.10;;;;;;;19.66;50.79;99200.91;4950669;28;20232;-70
2022/05/12 00:22:12;;;;;;;13.07;6.47;;;;;;;19.57;50.80;99196.91;4949939;28;20310;-70
2022/05/12 00:24:38;;;;;;;12.60;6.67;;;;;;;19.61;50.73;99196.19;4954369;28;20676;-71
2022/05/12 00:27:05;;;;;;;10.37;6.60;;;;;;;19.62;50.92;99199.75;4950416;28;20271;-70
2022/05/12 00:29:32;;;;;;;13.27;6.50;;;;;;;19.56;50.83;99196.09;4952831;28;20252;-69
2022/05/12 00:31:59;;;;;;;12.77;6.50;;;;;;;19.60;50.89;99197.28;4357479;28;20280;-73
2022/05/12 00:34:25;;;;;;;12.63;6.60;;;;;;;19.57;50.88;99191.50;4183256;28;22717;-72
2022/05/12 00:36:52;;;;;;;13.30;6.60;;;;;;;19.53;50.76;99188.47;4194081;28;23040;-70
2022/05/12 00:39:19;;;;;;;16.27;6.63;;;;;;;19.64;50.54;99191.41;4175343;28;20226;-72
2022/05/12 00:41:45;;;;;;;16.03;6.93;;;;;;;19.60;50.31;99181.06;4184442;28;20239;-71
2022/05/12 00:44:15;;;;;;;13.00;5.77;;;;;;;19.60;50.69;99188.38;4183395;28;20233;-71
2022/05/12 00:46:43;;;;;;;11.90;6.50;;;;;;;19.64;50.45;99189.50;4169843;28;20228;-72
2022/05/12 00:49:26;;;;;;;14.63;6.40;;;;;;;19.57;50.64;99178.00;4183684;28;20233;-71
2022/05/12 00:52:07;;;;;;;14.27;7.00;;;;;;;19.55;50.50;99182.81;4169463;28;20312;-70
2022/05/12 00:54:40;;;;;;;10.70;6.33;;;;;;;19.53;50.97;99183.06;4187700;28;20820;-71
2022/05/12 00:57:08;;;;;;;10.67;6.20;;;;;;;19.58;50.63;99175.09;4188499;28;20359;-71
2022/05/12 00:59:35;;;;;;;14.17;6.90;;;;;;;19.55;50.60;99172.88;4181747;28;20835;-72
2022/05/12 01:02:04;;;;;;;9.80;6.00;;;;;;;19.58;50.42;99176.97;4194170;28;20249;-71
2022/05/12 01:04:31;;;;;;;10.07;6.43;;;;;;;19.50;50.68;99169.22;4175127;28;20273;-71
2022/05/12 01:06:58;;;;;;;15.83;5.47;;;;;;;19.50;50.33;99175.47;4176574;28;21677;-70
2022/05/12 01:09:25;;;;;;;10.90;6.30;;;;;;;19.42;50.92;99166.88;4189044;28;20272;-71
2022/05/12 01:11:52;;;;;;;11.43;5.70;;;;;;;19.48;50.54;99171.31;4179259;28;20237;-71
2022/05/12 01:14:19;;;;;;;12.37;6.30;;;;;;;19.44;50.78;99168.28;4177737;28;20245;-71
2022/05/12 01:16:49;;;;;;;11.03;6.63;;;;;;;19.45;50.42;99161.81;4181849;28;20248;-71
2022/05/12 01:19:19;;;;;;;11.60;6.10;;;;;;;19.50;50.09;99155.72;4176761;28;21198;-71
2022/05/12 01:21:47;;;;;;;11.23;6.30;;;;;;;19.45;50.59;99155.63;4157786;28;22292;-71
2022/05/12 01:24:15;;;;;;;15.13;6.03;;;;;;;19.47;50.28;99158.91;4181902;28;23015;-71
2022/05/12 01:26:42;;;;;;;11.67;6.03;;;;;;;19.43;50.38;99155.03;4172350;28;20277;-70
2022/05/12 01:29:09;;;;;;;10.20;5.70;;;;;;;19.42;50.32;99150.69;4183154;28;20275;-71
2022/05/12 01:31:36;;;;;;;15.97;6.17;;;;;;;19.34;50.48;99151.88;4176800;28;20245;-70
2022/05/12 01:34:06;;;;;;;14.43;5.77;;;;;;;19.39;50.32;99147.41;4180335;28;20327;-71
2022/05/12 01:36:32;;;;;;;13.97;6.00;;;;;;;19.40;50.13;99143.63;4192509;28;22047;-71
2022/05/12 01:38:59;;;;;;;13.33;5.70;;;;;;;19.38;50.33;99144.94;4191425;28;20245;-70
2022/05/12 01:41:26;;;;;;;11.67;5.40;;;;;;;19.37;50.32;99138.72;4177112;28;20225;-71
2022/05/12 01:43:52;;;;;;;9.07;5.67;;;;;;;19.36;50.72;99131.69;4181417;28;20237;-73
2022/05/12 01:46:19;;;;;;;10.80;6.03;;;;;;;19.37;50.13;99138.72;4205271;28;20451;-70
2022/05/12 01:48:46;;;;;;;8.43;5.23;;;;;;;19.35;50.33;99130.03;4177052;28;23137;-72
2022/05/12 01:51:12;;;;;;;10.47;5.57;;;;;;;19.27;50.52;99135.81;4176038;28;20243;-71
2022/05/12 01:53:39;;;;;;;9.10;5.20;;;;;;;19.33;50.63;99137.53;4183764;28;20324;-73
2022/05/12 01:56:07;;;;;;;10.43;5.67;;;;;;;19.33;50.43;99132.16;4169375;28;20994;-71
2022/05/12 01:58:34;;;;;;;9.13;5.03;;;;;;;19.30;50.44;99127.22;4172469;28;21335;-72
2022/05/12 02:01:00;;;;;;;9.03;5.30;;;;;;;19.35;50.37;99129.22;4159019;28;22247;-71
2022/05/12 02:03:27;;;;;;;13.40;5.60;;;;;;;19.29;50.24;99128.28;4172533;28;21424;-73
2022/05/12 02:05:54;;;;;;;9.57;4.83;;;;;;;19.20;50.59;99127.00;4177920;28;21597;-71
2022/05/12 02:08:21;;;;;;;13.97;5.47;;;;;;;19.17;50.78;99117.50;4172191;28;20346;-71
2022/05/12 02:10:50;;;;;;;13.10;5.70;;;;;;;19.22;50.47;99119.47;4169498;28;20233;-72
2022/05/12 02:13:18;;;;;;;13.70;5.40;;;;;;;19.17;50.62;99116.66;4188320;28;20237;-71
2022/05/12 02:15:46;;;;;;;9.37;5.07;;;;;;;19.16;50.58;99115.03;4165150;28;20394;-72
2022/05/12 02:18:13;;;;;;;12.87;5.43;;;;;;;19.19;50.42;99109.16;4178176;28;22269;-72
2022/05/12 02:20:39;;;;;;;13.37;5.73;;;;;;;19.13;50.58;99110.13;4173337;28;20271;-72
2022/05/12 02:23:06;;;;;;;9.20;5.27;;;;;;;19.11;50.80;99109.53;4169086;28;20247;-71
2022/05/12 02:25:33;;;;;;;15.03;5.30;;;;;;;19.11;50.43;99106.81;4170182;28;20230;-71
2022/05/12 02:28:00;;;;;;;15.17;5.63;;;;;;;19.10;50.47;99111.38;4166307;28;20288;-71
2022/05/12 02:30:29;;;;;;;9.30;4.93;;;;;;;19.10;50.36;99110.56;4170192;28;20301;-72
2022/05/12 02:32:56;;;;;;;9.57;5.10;;;;;;;19.10;50.18;99102.47;4167894;28;20247;-71
2022/05/12 02:35:23;;;;;;;12.50;5.20;;;;;;;19.08;50.48;99091.09;4164275;28;22534;-72
2022/05/12 02:37:50;;;;;;;11.80;5.30;;;;;;;19.12;50.59;99089.56;4167532;28;27137;-71
2022/05/12 02:40:20;;;;;;;12.90;5.50;;;;;;;19.09;50.46;99092.75;4165524;28;20244;-72
2022/05/12 02:42:46;;;;;;;9.37;4.93;;;;;;;19.05;50.56;99078.09;4169016;28;20659;-70
2022/05/12 02:45:14;;;;;;;15.40;5.27;;;;;;;19.02;50.42;99079.38;4183707;28;21336;-71
2022/05/12 02:47:41;;;;;;;8.00;4.77;;;;;;;19.00;50.42;99081.47;4170569;28;20431;-71
2022/05/12 02:50:08;;;;;;;14.70;5.07;;;;;;;19.01;50.85;99085.84;4168602;28;20233;-70
2022/05/12 02:52:35;;;;;;;28.73;5.23;;;;;;;19.03;50.57;99082.88;4162489;28;23096;-71
2022/05/12 02:55:02;;;;;;;10.27;4.57;;;;;;;19.02;50.42;99086.66;4166003;28;20253;-72
2022/05/12 02:57:28;;;;;;;13.20;4.87;;;;;;;19.01;50.43;99075.06;4170073;28;20571;-73
2022/05/12 02:59:59;;;;;;;11.97;5.07;;;;;;;19.06;50.25;99077.03;4215145;28;21800;-72
2022/05/12 03:02:26;;;;;;;10.67;4.70;;;;;;;19.00;50.36;99068.00;4193996;28;21217;-72
2022/05/12 03:04:53;;;;;;;10.97;4.77;;;;;;;19.05;50.23;99080.78;4208131;28;20270;-73
2022/05/12 03:07:20;;;;;;;8.73;4.80;;;;;;;19.03;49.94;99066.72;4232469;28;20254;-73
2022/05/12 03:09:46;;;;;;;12.47;4.87;;;;;;;19.06;49.67;99068.94;4182046;28;20222;-73
2022/05/12 03:12:13;;;;;;;9.23;4.67;;;;;;;19.03;50.01;99072.09;4179498;28;20242;-72
2022/05/12 03:14:39;;;;;;;15.43;5.00;;;;;;;18.97;49.95;99073.88;4180770;28;21701;-71
2022/05/12 03:17:06;;;;;;;12.00;4.33;;;;;;;18.93;50.27;99062.72;4193087;28;22186;-70
2022/05/12 03:19:33;;;;;;;14.70;4.57;;;;;;;18.89;50.40;99064.22;4169779;28;20244;-71
2022/05/12 03:21:59;;;;;;;11.93;4.40;;;;;;;18.92;50.15;99055.69;4184394;28;20463;-70
2022/05/12 03:24:26;;;;;;;9.33;4.73;;;;;;;18.91;50.30;99062.13;4181125;28;20468;-71
2022/05/12 03:26:53;;;;;;;14.67;4.37;;;;;;;18.97;50.03;99063.09;4169831;28;20302;-70
2022/05/12 03:29:19;;;;;;;12.77;4.27;;;;;;;19.10;49.99;99053.94;4175558;28;20234;-71
2022/05/12 03:31:46;;;;;;;14.93;4.73;;;;;;;19.03;49.62;99053.22;4175127;28;20230;-73
2022/05/12 03:34:13;;;;;;;9.23;4.60;;;;;;;19.02;50.02;99054.28;4176825;28;20238;-72
2022/05/12 03:36:39;;;;;;;8.03;4.77;;;;;;;19.04;49.94;99053.00;4182488;28;21851;-71
2022/05/12 03:39:07;;;;;;;11.17;5.13;;;;;;;19.05;49.94;99059.22;4190717;28;23050;-70
2022/05/12 03:41:34;;;;;;;10.10;4.97;;;;;;;19.07;49.72;99052.53;4170898;28;20240;-72
2022/05/12 03:46:46;;;;;;;12.90;4.53;;;;;;;19.05;49.76;99049.25;4164680;28;20744;-70
2022/05/12 03:49:12;;;;;;;12.20;4.30;;;;;;;19.11;49.50;99052.91;4174487;28;20740;-72
2022/05/12 03:51:39;;;;;;;9.73;4.60;;;;;;;19.21;49.25;99047.72;4168369;28;20230;-73
2022/05/12 03:54:06;;;;;;;8.93;4.80;;;;;;;19.34;48.81;99052.06;4170557;28;20239;-72
2022/05/12 03:56:33;;;;;;;14.67;4.63;;;;;;;19.37;48.82;99049.69;4176665;28;20297;-73
2022/05/12 03:59:03;;;;;;;10.07;3.90;;;;;;;19.42;48.82;99046.28;4168143;28;26602;-72
2022/05/12 04:01:31;;;;;;;16.33;4.20;;;;;;;19.48;48.57;99045.34;4178966;28;23111;-72
2022/05/12 04:03:58;;;;;;;8.43;4.10;;;;;;;19.50;48.30;99056.75;4180349;28;21697;-71
2022/05/12 04:06:25;;;;;;;10.53;3.90;;;;;;;19.50;48.43;99050.50;4167850;28;20227;-72
2022/05/12 04:08:51;;;;;;;7.20;4.10;;;;;;;19.54;48.56;99051.66;4198249;28;21418;-70
2022/05/12 04:11:18;;;;;;;13.23;4.40;;;;;;;19.54;48.44;99046.28;4181530;28;20232;-70
2022/05/12 04:13:44;;;;;;;15.83;4.70;;;;;;;19.57;48.31;99040.38;4187473;28;20650;-70
2022/05/12 04:16:11;;;;;;;7.90;4.30;;;;;;;19.55;48.55;99037.94;4188097;28;20308;-71
2022/05/12 04:18:38;;;;;;;10.03;4.20;;;;;;;19.60;48.23;99037.25;4184158;28;21763;-72
2022/05/12 04:21:04;;;;;;;8.87;4.00;;;;;;;19.71;48.22;99030.19;4182982;28;20299;-71
2022/05/12 04:23:31;;;;;;;10.43;4.63;;;;;;;19.84;47.83;99043.41;4181964;28;21338;-71
2022/05/12 04:26:00;;;;;;;15.07;4.47;;;;;;;19.86;47.42;99040.47;4183683;28;20237;-71
2022/05/12 04:28:27;;;;;;;19.60;4.70;;;;;;;19.89;47.60;99042.69;4183531;28;20654;-70
2022/05/12 04:30:53;;;;;;;11.37;4.17;;;;;;;19.93;47.21;99030.38;4177735;28;20335;-70
2022/05/12 04:36:06;;;;;;;19.50;4.77;;;;;;;20.11;46.75;99037.44;4170018;28;20343;-71
2022/05/12 04:38:33;;;;;;;12.93;3.97;;;;;;;20.15;46.63;99036.72;4185613;28;20229;-71
2022/05/12 04:40:59;;;;;;;13.57;4.40;;;;;;;20.27;46.14;99036.66;4186587;28;21695;-69
2022/05/12 04:43:27;;;;;;;13.93;4.43;;;;;;;20.29;46.24;99037.22;4186021;28;20370;-70
2022/05/12 04:45:53;;;;;;;9.90;3.63;;;;;;;20.41;45.73;99042.56;4190144;28;20301;-72
2022/05/12 04:48:23;;;;;;;14.70;4.90;;;;;;;20.43;45.50;99035.84;4184372;28;20237;-75
2022/05/12 04:50:50;;;;;;;13.27;3.90;;;;;;;20.41;45.66;99040.69;4190303;28;20234;-68
2022/05/12 04:53:17;;;;;;;20.30;4.33;;;;;;;20.43;45.58;99037.75;4212851;28;20262;-66
2022/05/12 04:55:45;;;;;;;21.23;4.93;;;;;;;20.52;45.71;99033.59;4186769;28;20233;-70
2022/05/12 04:58:11;;;;;;;12.07;4.50;;;;;;;20.64;45.22;99033.53;4180001;28;20469;-68
2022/05/12 05:00:40;;;;;;;13.87;4.57;;;;;;;20.65;45.05;99029.78;4174411;28;20317;-70
2022/05/12 05:03:08;;;;;;;24.87;4.47;;;;;;;20.73;45.20;99033.97;4186382;28;20222;-73
2022/05/12 05:05:35;;;;;;;10.03;4.03;;;;;;;20.73;45.44;99026.66;4180414;28;20630;-68
2022/05/12 05:08:03;;;;;;;21.90;3.93;;;;;;;20.83;44.75;99021.41;4182882;28;20239;-68
2022/05/12 05:10:32;;;;;;;19.97;4.93;;;;;;;20.79;44.85;99032.94;4164632;28;20240;-69
2022/05/12 05:12:59;;;;;;;22.77;4.40;;;;;;;20.70;45.71;99037.97;4182004;28;20249;-68
2022/05/12 05:15:26;;;;;;;24.13;4.87;;;;;;;20.87;44.63;99032.56;4159599;28;20309;-66
2022/05/12 05:17:52;;;;;;;25.17;4.90;;;;;;;20.86;44.87;99028.19;4150649;28;24848;-69
2022/05/12 05:20:23;;;;;;;23.57;4.33;;;;;;;20.89;44.85;99035.84;4168792;28;21509;-71
2022/05/12 05:22:49;;;;;;;26.33;4.50;;;;;;;20.81;45.05;99034.38;4163423;28;20235;-68
2022/05/12 05:25:16;;;;;;;16.53;4.57;;;;;;;20.87;45.20;99035.25;4158303;28;21947;-71
2022/05/12 05:27:44;;;;;;;23.17;4.10;;;;;;;20.94;44.97;99029.69;4167989;28;21660;-69
2022/05/12 05:30:14;;;;;;;18.00;4.00;;;;;;;20.92;44.89;99018.28;4187071;28;20573;-70
2022/05/12 05:32:41;;;;;;;25.73;4.47;;;;;;;20.96;44.60;99017.56;4183534;28;20242;-68
2022/05/12 05:35:08;;;;;;;35.23;5.03;;;;;;;20.84;45.32;99027.66;4188435;28;20756;-70
2022/05/12 05:37:38;;;;;;;28.33;4.73;;;;;;;20.83;45.52;99017.88;4157562;28;23366;-68
2022/05/12 05:40:06;;;;;;;15.57;3.80;;;;;;;21.00;44.81;99013.28;4201459;28;20369;-70
2022/05/12 05:42:33;;;;;;;41.67;5.40;;;;;;;21.27;44.59;99026.09;4187569;28;22840;-69
2022/05/12 05:45:00;;;;;;;14.87;4.13;;;;;;;21.67;43.76;99035.84;4211125;28;20269;-67
2022/05/12 05:47:28;;;;;;;27.93;4.90;;;;;;;22.25;41.95;99039.78;4166458;28;25657;-65
2022/05/12 05:49:55;;;;;;;18.20;4.40;;;;;;;22.53;40.98;99041.41;4174041;28;20364;-68
2022/05/12 05:55:08;;;;;;;18.33;4.10;;;;;;;23.65;38.77;99029.69;4203992;28;20329;-68
2022/05/12 05:57:36;;;;;;;14.47;3.87;;;;;;;24.31;37.29;99042.66;4206180;28;20237;-70
2022/05/12 06:00:05;;;;;;;20.63;4.40;;;;;;;24.74;36.24;99043.25;4184464;28;20237;-67
2022/05/12 06:02:33;;;;;;;15.33;3.80;;;;;;;24.27;36.81;99038.84;4174941;28;20892;-67
2022/05/12 06:05:00;;;;;;;27.13;4.63;;;;;;;24.38;36.91;99037.78;4201032;28;20278;-67
2022/05/12 06:07:29;;;;;;;17.63;4.40;;;;;;;24.40;37.15;99048.38;4187714;28;22981;-71
2022/05/12 06:09:57;;;;;;;24.80;4.43;;;;;;;24.95;35.95;99043.25;4179942;28;20558;-64
2022/05/12 06:12:24;;;;;;;30.53;5.03;;;;;;;25.03;35.73;99050.88;4193178;28;22206;-66
2022/05/12 06:14:50;;;;;;;24.80;4.07;;;;;;;25.08;35.52;99048.13;4183926;28;21312;-72
2022/05/12 06:17:17;;;;;;;34.97;5.17;;;;;;;25.30;34.48;99047.03;4203008;28;20236;-68
2022/05/12 06:19:43;;;;;;;34.40;5.90;;;;;;;25.52;34.58;99052.97;4209436;28;21530;-73
2022/05/12 06:22:13;;;;;;;33.40;5.27;;;;;;;25.83;34.35;99052.84;4192807;28;21850;-74
2022/05/12 06:24:40;;;;;;;23.17;4.90;;;;;;;26.73;32.43;99047.13;4188834;28;22397;-71
2022/05/12 06:27:06;;;;;;;18.23;4.53;;;;;;;27.04;32.05;99054.25;4166211;28;20391;-70
2022/05/12 06:29:33;;;;;;;14.73;3.87;;;;;;;27.11;31.78;99071.09;4173092;28;22837;-71
2022/05/12 06:32:01;;;;;;;15.60;3.83;;;;;;;26.57;32.70;99050.28;4213590;28;20322;-68
2022/05/12 06:34:28;;;;;;;27.40;4.57;;;;;;;25.85;34.09;99051.47;4175950;28;20565;-71
2022/05/12 06:36:59;;;;;;;19.20;4.50;;;;;;;26.45;32.98;99066.97;4188424;28;20229;-69
2022/05/12 06:39:26;;;;;;;22.47;4.40;;;;;;;27.38;31.53;99076.06;4187586;28;20368;-68
2022/05/12 06:41:53;;;;;;;17.03;3.90;;;;;;;27.42;31.27;99081.75;4189052;28;20245;-70
2022/05/12 06:44:20;;;;;;;21.90;4.53;;;;;;;26.95;32.03;99074.00;4194738;28;20423;-54
2022/05/12 06:46:47;;;;;;;17.70;4.37;;;;;;;27.57;31.40;99070.66;4225576;28;21557;-53
2022/05/12 06:49:14;;;;;;;31.00;4.57;;;;;;;26.64;32.51;99072.59;4181557;28;20229;-53
2022/05/12 06:51:40;;;;;;;25.20;4.83;;;;;;;26.79;32.74;99075.22;4181024;28;21597;-67
2022/05/12 06:54:09;;;;;;;18.50;4.20;;;;;;;27.36;31.62;99070.88;4192070;28;25550;-65
2022/05/12 06:56:35;;;;;;;17.10;4.33;;;;;;;27.92;30.51;99079.56;4179971;28;20232;-66
2022/05/12 06:59:02;;;;;;;21.57;3.87;;;;;;;28.56;29.96;99085.53;4194251;28;21604;-67
2022/05/12 07:01:29;;;;;;;24.77;4.30;;;;;;;27.58;30.65;99069.53;4160900;28;20920;-67
2022/05/12 07:04:00;;;;;;;37.67;4.60;;;;;;;27.74;30.76;99076.47;4174084;28;20725;-64
2022/05/12 07:06:28;;;;;;;28.35;4.50;;;;;;;27.67;30.80;99077.91;4177490;28;20663;-67
2022/05/12 07:08:58;;;;;;;25.27;4.60;;;;;;;28.39;29.83;99073.16;4186824;28;21559;-65
2022/05/12 07:11:25;;;;;;;32.97;4.78;;;;;;;27.83;29.85;99076.66;4171443;28;20240;-69
2022/05/12 07:13:52;;;;;;;30.23;4.38;;;;;;;27.81;30.16;99091.69;4174963;28;24876;-68
2022/05/12 07:16:20;;;;;;;35.33;4.63;;;;;;;27.84;30.40;99082.94;4221356;28;22222;-70
2022/05/12 07:18:48;;;;;;;47.30;5.43;;;;;;;27.61;30.44;99065.44;4202011;28;20236;-66
2022/05/12 07:26:50;;;;;;;39.03;4.90;;;;;;;26.92;30.79;99095.56;4185980;28;20274;-66
2022/05/12 07:29:22;;;;;;;30.13;5.00;;;;;;;25.46;33.84;99087.56;4229808;28;20231;-75
2022/05/12 07:31:49;;;;;;;40.67;5.47;;;;;;;25.89;33.35;99095.34;4174190;28;20307;-66
2022/05/12 07:34:17;;;;;;;33.93;5.60;;;;;;;25.66;33.82;99103.06;4211567;28;20334;-66
2022/05/12 07:36:46;;;;;;;41.33;5.53;;;;;;;25.21;34.55;99112.94;4203650;28;21272;-67
2022/05/12 07:39:15;;;;;;;43.70;5.03;;;;;;;24.70;36.23;99120.25;4203495;28;21267;-67
2022/05/12 07:41:42;;;;;;;29.90;5.20;;;;;;;24.36;36.95;99107.09;4186597;28;20466;-67
2022/05/12 07:44:09;;;;;;;26.57;5.23;;;;;;;24.44;36.49;99129.16;4208686;28;20299;-67
2022/05/12 07:46:37;;;;;;;28.73;5.50;;;;;;;24.57;37.11;99113.44;4178695;28;20303;-65
2022/05/12 07:49:03;;;;;;;22.63;5.50;;;;;;;24.52;36.53;99144.16;4186809;28;20314;-69
2022/05/12 07:51:30;;;;;;;25.87;5.47;;;;;;;24.42;36.81;99144.13;4178226;28;20240;-64
2022/05/12 07:53:57;;;;;;;26.57;5.33;;;;;;;24.98;37.06;99146.97;4218020;28;22460;-66
2022/05/12 07:56:26;;;;;;;18.75;4.80;;;;;;;24.95;36.27;99146.66;4187370;28;21406;-64
2022/05/12 07:58:54;;;;;;;17.80;4.72;;;;;;;25.03;37.15;99157.03;4203259;28;20296;-46
2022/05/12 08:01:24;;;;;;;15.17;4.20;;;;;;;24.76;36.72;99158.06;4164462;28;26555;-57
2022/05/12 08:03:51;;;;;;;12.00;4.23;;;;;;;24.51;37.43;99158.81;4175062;28;21865;-67
2022/05/12 08:06:18;;;;;;;16.13;4.17;;;;;;;24.41;37.35;99169.66;4182158;28;20235;-67
2022/05/12 08:08:48;;;;;;;12.73;4.17;;;;;;;24.61;37.35;99177.91;4179878;28;23766;-69
2022/05/12 08:11:15;;;;;;;8.93;3.77;;;;;;;24.73;36.84;99202.16;4194833;28;20239;-66
2022/05/12 08:13:47;;;;;;;14.50;3.80;;;;;;;24.70;37.53;99199.97;4167315;28;20747;-67
2022/05/12 08:16:15;;;;;;;16.67;3.80;;;;;;;24.76;37.21;99215.22;4180734;28;20250;-71
2022/05/12 08:18:44;;;;;;;21.30;4.27;;;;;;;24.37;38.09;99204.75;4195762;28;20233;-65
2022/05/12 08:21:12;;;;;;;16.03;4.37;;;;;;;23.95;38.89;99213.78;4201428;28;20247;-68
2022/05/12 08:23:39;;;;;;;12.57;4.17;;;;;;;23.70;39.46;99221.72;4183731;28;20234;-66
2022/05/12 08:26:06;;;;;;;13.03;3.73;;;;;;;23.68;39.78;99226.59;4210306;28;21696;-69
2022/05/12 08:28:33;;;;;;;10.43;4.00;;;;;;;23.75;40.20;99254.41;4198709;28;20240;-69
2022/05/12 08:30:59;;;;;;;22.13;3.80;;;;;;;23.03;39.82;99237.44;4175756;28;21213;-69
2022/05/12 08:33:28;;;;;;;21.23;4.37;;;;;;;22.70;41.50;99247.38;4175442;28;21251;-68
2022/05/12 08:35:58;;;;;;;14.77;4.13;;;;;;;22.65;42.00;99262.78;4166136;28;20294;-68
2022/05/12 08:38:25;;;;;;;16.70;3.80;;;;;;;22.38;42.41;99268.13;4166333;28;21911;-69
2022/05/12 08:41:04;;;;;;;19.03;4.27;;;;;;;22.27;42.20;99268.00;4210027;28;22162;-68
2022/05/12 08:43:37;;;;;;;20.43;3.73;;;;;;;22.01;43.25;99287.63;4186255;28;20805;-68
2022/05/12 08:46:07;;;;;;;20.13;3.47;;;;;;;21.73;43.78;99291.25;4187388;28;20240;-68
2022/05/12 08:48:38;;;;;;;14.97;3.67;;;;;;;21.65;43.59;99297.91;4212079;28;20246;-66
2022/05/12 08:51:06;;;;;;;38.80;3.87;;;;;;;21.61;43.81;99296.75;4228008;28;22286;-68
2022/05/12 08:53:43;;;;;;;17.43;3.53;;;;;;;21.58;43.36;99291.84;4180726;28;20372;-69
2022/05/12 08:56:10;;;;;;;13.87;3.13;;;;;;;21.83;42.95;99311.22;4212865;28;21604;-69
2022/05/12 08:58:39;;;;;;;20.30;2.90;;;;;;;21.73;43.05;99311.06;4162564;28;20247;-69
2022/05/12 09:01:13;;;;;;;19.37;3.20;;;;;;;21.24;44.54;99324.25;4189030;28;20317;-69
2022/05/12 09:03:56;;;;;;;24.50;3.00;;;;;;;21.07;46.01;99329.56;4161549;28;23517;-68
2022/05/12 09:06:35;;;;;;;18.80;3.53;;;;;;;20.76;46.75;99334.38;4198342;28;20521;-69
2022/05/12 09:09:03;;;;;;;15.20;3.20;;;;;;;20.96;46.51;99331.28;4158664;28;21281;-68
2022/05/12 09:11:38;;;;;;;14.47;3.23;;;;;;;20.90;46.67;99329.53;4157585;28;21803;-69
2022/05/12 09:14:09;;;;;;;19.50;3.20;;;;;;;20.97;46.62;99330.19;4162452;28;20238;-68
2022/05/12 09:16:36;;;;;;;17.43;3.00;;;;;;;20.99;46.34;99335.38;4167015;28;20310;-69
2022/05/12 09:19:02;;;;;;;22.23;2.80;;;;;;;20.79;46.11;99336.63;4168400;28;20861;-68
2022/05/12 09:21:32;;;;;;;15.20;2.10;;;;;;;20.79;45.45;99349.31;4164095;28;20306;-69
2022/05/12 09:23:58;;;;;;;13.40;3.17;;;;;;;20.76;45.40;99347.09;4161669;28;20257;-68
2022/05/12 09:26:37;;;;;;;12.43;1.63;;;;;;;20.67;43.84;99346.63;4168738;28;20240;-70
2022/05/12 09:29:21;;;;;;;7.40;1.67;;;;;;;20.75;43.91;99348.97;4176517;28;21831;-70
2022/05/12 09:32:13;;;;;;;15.13;1.97;;;;;;;20.80;43.91;99348.25;4203209;28;20487;-68
2022/05/12 09:34:43;;;;;;;19.93;2.30;;;;;;;20.81;43.17;99358.00;4157761;28;20250;-69
2022/05/12 09:37:15;;;;;;;14.23;1.77;;;;;;;20.63;44.47;99367.91;4164371;28;20409;-69
2022/05/12 09:39:56;;;;;;;22.67;1.77;;;;;;;20.75;43.76;99375.19;4162158;28;20239;-70
2022/05/12 09:42:28;;;;;;;11.37;1.60;;;;;;;20.98;44.65;99377.84;4151463;28;20346;-70
2022/05/12 09:45:07;;;;;;;13.67;1.87;;;;;;;21.29;42.16;99395.50;4182644;28;20243;-69
2022/05/12 09:47:35;;;;;;;12.23;1.60;;;;;;;21.16;42.39;99397.66;4173020;28;26277;-68
2022/05/12 09:50:26;;;;;;;15.27;2.17;;;;;;;21.08;42.67;99407.81;4183934;28;20246;-68
2022/05/12 09:53:00;;;;;;;10.73;2.07;;;;;;;20.97;43.08;99411.34;4191225;28;20302;-69
2022/05/12 09:55:33;;;;;;;9.27;1.60;;;;;;;21.07;43.22;99421.56;4170153;28;20643;-69
2022/05/12 09:58:02;;;;;;;15.00;1.80;;;;;;;21.08;42.95;99428.63;4164568;28;20243;-69
2022/05/12 10:00:50;;;;;;;18.00;2.37;;;;;;;21.05;43.50;99432.63;4202820;28;23608;-70
2022/05/12 10:09:06;;;;;;;11.90;1.90;;;;;;;20.57;44.60;99452.66;4162754;28;20348;-72
2022/05/12 10:11:39;;;;;;;16.60;2.00;;;;;;;20.61;44.53;99469.22;4170181;28;21206;-69
2022/05/12 10:14:06;;;;;;;12.67;1.90;;;;;;;20.67;45.29;99479.09;4213955;28;20954;-68
2022/05/12 10:16:33;;;;;;;38.60;2.27;;;;;;;20.81;44.95;99493.19;4162556;28;20235;-68
2022/05/12 10:19:04;;;;;;;12.60;1.83;;;;;;;20.50;43.22;99492.44;4176990;28;20401;-67
2022/05/12 10:21:38;;;;;;;19.07;1.87;;;;;;;20.52;43.16;99489.53;4174581;28;20304;-68
2022/05/12 10:24:08;;;;;;;12.13;1.93;;;;;;;20.41;43.07;99480.34;4181697;28;20799;-67
2022/05/12 10:26:39;;;;;;;14.30;1.50;;;;;;;20.22;42.24;99493.91;4180229;28;21442;-70
2022/05/12 10:29:16;;;;;;;14.87;1.37;;;;;;;20.34;41.92;99493.94;4187118;28;21030;-67
2022/05/12 10:31:59;;;;;;;18.00;1.50;;;;;;;20.51;41.80;99499.50;4171252;28;21733;-67
2022/05/12 10:34:35;;;;;;;25.37;1.87;;;;;;;20.79;42.08;99500.72;4201136;28;20242;-70
2022/05/12 10:37:31;;;;;;;29.83;1.93;;;;;;;20.70;41.62;99507.53;4186483;28;20301;-69
2022/05/12 10:40:25;;;;;;;8.93;1.47;;;;;;;20.39;41.87;99512.16;4160229;28;20230;-67
2022/05/12 10:43:25;;;;;;;18.33;1.50;;;;;;;20.23;42.65;99508.28;4181452;28;20628;-69
2022/05/12 10:46:23;;;;;;;25.57;2.20;;;;;;;20.26;42.73;99513.22;4183844;28;20275;-69
2022/05/12 10:49:14;;;;;;;20.07;1.90;;;;;;;20.31;43.64;99528.72;4155804;28;20399;-66
2022/05/12 10:52:02;;;;;;;15.17;2.03;;;;;;;20.30;44.32;99509.00;4187614;28;20234;-69
2022/05/12 10:54:55;;;;;;;16.30;1.63;;;;;;;19.91;44.31;99526.59;4168676;28;21565;-68
2022/05/12 10:57:29;;;;;;;8.97;1.37;;;;;;;19.95;44.20;99506.19;4226217;28;20234;-69
2022/05/12 11:00:08;;;;;;;16.50;2.50;;;;;;;20.23;44.08;99536.09;4199319;28;20727;-68
2022/05/12 11:02:43;;;;;;;16.60;1.60;;;;;;;20.41;43.46;99523.56;4188625;28;22199;-68
2022/05/12 11:05:26;;;;;;;22.73;2.13;;;;;;;20.44;43.23;99525.84;4219961;28;20237;-67
2022/05/12 11:07:59;;;;;;;16.30;1.80;;;;;;;20.50;42.42;99518.66;4240676;28;20242;-70
2022/05/12 11:10:33;;;;;;;22.33;2.53;;;;;;;20.70;42.32;99524.59;4205851;28;21077;-69
2022/05/12 11:13:04;;;;;;;29.97;2.47;;;;;;;20.68;41.39;99528.59;4211538;28;20285;-69
2022/05/12 11:15:57;;;;;;;29.83;2.50;;;;;;;20.42;41.57;99522.53;4273348;28;20244;-69
2022/05/12 11:18:43;;;;;;;15.17;2.00;;;;;;;20.47;41.98;99525.34;4293501;28;21451;-68
2022/05/12 11:21:25;;;;;;;13.70;1.50;;;;;;;20.44;42.04;99536.63;4357189;28;21032;-68
2022/05/12 11:24:26;;;;;;;20.43;1.87;;;;;;;20.97;41.18;99530.34;4377985;28;20423;-70
2022/05/12 11:27:14;;;;;;;26.37;1.90;;;;;;;21.18;41.08;99530.81;4307230;28;21555;-69
2022/05/12 11:30:07;;;;;;;21.63;2.00;;;;;;;21.14;40.39;99526.94;4372033;28;20322;-67
2022/05/12 11:32:41;;;;;;;18.40;2.00;;;;;;;20.80;41.24;99537.53;4214343;28;21732;-68
2022/05/12 11:35:12;;;;;;;21.17;1.90;;;;;;;20.81;40.95;99548.13;4206691;28;20372;-68
2022/05/12 11:37:42;;;;;;;13.70;1.67;;;;;;;20.56;42.16;99551.03;4202859;28;20714;-68
2022/05/12 11:40:12;;;;;;;17.33;1.70;;;;;;;20.48;40.96;99551.31;4219784;28;20240;-69
2022/05/12 11:45:50;;;;;;;6.87;1.50;;;;;;;20.38;40.72;99554.59;4196927;28;20238;-67
2022/05/12 11:48:25;;;;;;;13.30;1.33;;;;;;;20.12;41.41;99554.97;4215300;28;20233;-69
2022/05/12 11:51:40;;;;;;;12.33;1.60;;;;;;;20.06;41.82;99562.09;4191840;28;20225;-68
2022/05/12 11:54:34;;;;;;;17.90;1.50;;;;;;;20.07;42.06;99568.34;4181527;28;20350;-69
2022/05/12 11:57:05;;;;;;;15.10;1.53;;;;;;;20.17;42.18;99552.41;4189295;28;20234;-69
2022/05/12 11:59:33;;;;;;;25.63;1.90;;;;;;;20.31;41.85;99548.47;4211418;28;20398;-69
2022/05/12 12:02:06;;;;;;;9.20;1.17;;;;;;;20.05;41.89;99555.06;4204089;28;20238;-69